sensor_id;sensor_type;location;lat;lon;timestamp;P1;durP1;ratioP1;P2;durP2;ratioP2
15354;SDS011;7777;52.254;9.618;2024-02-16T00:00:26;4.57;;;2.10;;
15354;SDS011;7777;52.254;9.618;2024-02-16T00:02:53;5.07;;;1.67;;
15354;SDS011;7777;52.254;9.618;2024-02-16T00:05:19;7.20;;;1.40;;
15354;SDS011;7777;52.254;9.618;2024-02-16T00:07:44;3.77;;;1.30;;
15354;SDS011;7777;52.254;9.618;2024-02-16T00:10:10;5.00;;;1.30;;
15354;SDS011;7777;52.254;9.618;2024-02-16T00:12:41;3.93;;;1.33;;
15354;SDS011;7777;52.254;9.618;2024-02-16T00:15:07;4.97;;;1.17;;
15354;SDS011;7777;52.254;9.618;2024-02-16T00:17:33;5.63;;;1.77;;
15354;SDS011;7777;52.254;9.618;2024-02-16T00:19:59;3.97;;;1.43;;
15354;SDS011;7777;52.254;9.618;2024-02-16T00:22:25;3.73;;;1.40;;
15354;SDS011;7777;52.254;9.618;2024-02-16T00:24:54;3.93;;;1.10;;
15354;SDS011;7777;52.254;9.618;2024-02-16T00:27:20;3.33;;;1.30;;
15354;SDS011;7777;52.254;9.618;2024-02-16T00:29:45;2.63;;;1.23;;
15354;SDS011;7777;52.254;9.618;2024-02-16T00:32:11;6.00;;;1.60;;
15354;SDS011;7777;52.254;9.618;2024-02-16T00:34:37;4.57;;;1.70;;
15354;SDS011;7777;52.254;9.618;2024-02-16T00:37:06;3.53;;;1.60;;
15354;SDS011;7777;52.254;9.618;2024-02-16T00:39:36;3.77;;;1.57;;
15354;SDS011;7777;52.254;9.618;2024-02-16T00:42:06;3.73;;;1.90;;
15354;SDS011;7777;52.254;9.618;2024-02-16T00:44:33;4.23;;;1.97;;
15354;SDS011;7777;52.254;9.618;2024-02-16T00:46:59;4.43;;;1.60;;
15354;SDS011;7777;52.254;9.618;2024-02-16T00:49:25;4.80;;;2.10;;
15354;SDS011;7777;52.254;9.618;2024-02-16T00:51:51;2.33;;;1.40;;
15354;SDS011;7777;52.254;9.618;2024-02-16T00:54:18;1.73;;;1.23;;
15354;SDS011;7777;52.254;9.618;2024-02-16T00:56:45;3.40;;;1.63;;
15354;SDS011;7777;52.254;9.618;2024-02-16T00:59:12;3.53;;;1.73;;
15354;SDS011;7777;52.254;9.618;2024-02-16T01:01:37;8.37;;;1.70;;
15354;SDS011;7777;52.254;9.618;2024-02-16T01:04:03;4.90;;;2.07;;
15354;SDS011;7777;52.254;9.618;2024-02-16T01:06:29;7.03;;;2.30;;
15354;SDS011;7777;52.254;9.618;2024-02-16T01:08:55;5.30;;;2.17;;
15354;SDS011;7777;52.254;9.618;2024-02-16T01:11:21;5.80;;;1.70;;
15354;SDS011;7777;52.254;9.618;2024-02-16T01:13:47;3.97;;;1.40;;
15354;SDS011;7777;52.254;9.618;2024-02-16T01:16:13;4.63;;;1.70;;
15354;SDS011;7777;52.254;9.618;2024-02-16T01:18:42;7.93;;;1.60;;
15354;SDS011;7777;52.254;9.618;2024-02-16T01:21:09;5.73;;;1.57;;
15354;SDS011;7777;52.254;9.618;2024-02-16T01:23:36;6.20;;;1.60;;
15354;SDS011;7777;52.254;9.618;2024-02-16T01:26:01;5.00;;;1.53;;
15354;SDS011;7777;52.254;9.618;2024-02-16T01:28:27;5.97;;;1.73;;
15354;SDS011;7777;52.254;9.618;2024-02-16T01:30:53;5.40;;;2.00;;
15354;SDS011;7777;52.254;9.618;2024-02-16T01:33:21;5.13;;;2.10;;
15354;SDS011;7777;52.254;9.618;2024-02-16T01:35:47;3.53;;;2.10;;
15354;SDS011;7777;52.254;9.618;2024-02-16T01:38:13;3.33;;;1.97;;
15354;SDS011;7777;52.254;9.618;2024-02-16T01:40:39;4.63;;;1.50;;
15354;SDS011;7777;52.254;9.618;2024-02-16T01:43:05;4.13;;;1.90;;
15354;SDS011;7777;52.254;9.618;2024-02-16T01:45:31;2.97;;;1.50;;
15354;SDS011;7777;52.254;9.618;2024-02-16T01:47:57;8.93;;;2.43;;
15354;SDS011;7777;52.254;9.618;2024-02-16T01:50:24;3.53;;;1.80;;
15354;SDS011;7777;52.254;9.618;2024-02-16T01:52:50;5.13;;;1.90;;
15354;SDS011;7777;52.254;9.618;2024-02-16T01:55:17;6.43;;;1.80;;
15354;SDS011;7777;52.254;9.618;2024-02-16T01:57:45;3.07;;;1.47;;
15354;SDS011;7777;52.254;9.618;2024-02-16T02:00:13;6.00;;;2.00;;
15354;SDS011;7777;52.254;9.618;2024-02-16T02:02:40;2.57;;;1.60;;
15354;SDS011;7777;52.254;9.618;2024-02-16T02:05:09;2.37;;;1.33;;
15354;SDS011;7777;52.254;9.618;2024-02-16T02:07:36;2.83;;;1.37;;
15354;SDS011;7777;52.254;9.618;2024-02-16T02:10:03;5.40;;;1.43;;
15354;SDS011;7777;52.254;9.618;2024-02-16T02:12:30;3.40;;;1.40;;
15354;SDS011;7777;52.254;9.618;2024-02-16T02:14:56;7.23;;;1.80;;
15354;SDS011;7777;52.254;9.618;2024-02-16T02:17:22;3.23;;;1.83;;
15354;SDS011;7777;52.254;9.618;2024-02-16T02:19:48;3.37;;;2.20;;
15354;SDS011;7777;52.254;9.618;2024-02-16T02:22:17;1.93;;;1.30;;
15354;SDS011;7777;52.254;9.618;2024-02-16T02:24:46;3.17;;;1.50;;
15354;SDS011;7777;52.254;9.618;2024-02-16T02:27:13;4.57;;;1.77;;
15354;SDS011;7777;52.254;9.618;2024-02-16T02:29:40;5.00;;;1.63;;
15354;SDS011;7777;52.254;9.618;2024-02-16T02:32:07;4.10;;;1.73;;
15354;SDS011;7777;52.254;9.618;2024-02-16T02:34:33;4.23;;;1.70;;
15354;SDS011;7777;52.254;9.618;2024-02-16T02:37:01;3.27;;;1.90;;
15354;SDS011;7777;52.254;9.618;2024-02-16T02:39:29;5.53;;;1.70;;
15354;SDS011;7777;52.254;9.618;2024-02-16T02:41:55;4.13;;;1.77;;
15354;SDS011;7777;52.254;9.618;2024-02-16T02:44:22;3.97;;;1.70;;
15354;SDS011;7777;52.254;9.618;2024-02-16T02:46:50;5.57;;;1.93;;
15354;SDS011;7777;52.254;9.618;2024-02-16T02:49:17;3.10;;;1.60;;
15354;SDS011;7777;52.254;9.618;2024-02-16T02:51:43;5.30;;;2.03;;
15354;SDS011;7777;52.254;9.618;2024-02-16T02:54:09;4.47;;;1.93;;
15354;SDS011;7777;52.254;9.618;2024-02-16T02:56:35;7.87;;;1.70;;
15354;SDS011;7777;52.254;9.618;2024-02-16T02:59:01;2.90;;;1.70;;
15354;SDS011;7777;52.254;9.618;2024-02-16T03:01:27;2.97;;;1.57;;
15354;SDS011;7777;52.254;9.618;2024-02-16T03:03:53;4.27;;;1.73;;
15354;SDS011;7777;52.254;9.618;2024-02-16T03:06:19;7.23;;;1.70;;
15354;SDS011;7777;52.254;9.618;2024-02-16T03:08:45;5.63;;;1.90;;
15354;SDS011;7777;52.254;9.618;2024-02-16T03:11:11;4.27;;;1.73;;
15354;SDS011;7777;52.254;9.618;2024-02-16T03:13:37;6.00;;;1.60;;
15354;SDS011;7777;52.254;9.618;2024-02-16T03:16:03;4.00;;;1.80;;
15354;SDS011;7777;52.254;9.618;2024-02-16T03:18:33;3.90;;;2.00;;
15354;SDS011;7777;52.254;9.618;2024-02-16T03:21:02;5.83;;;2.40;;
15354;SDS011;7777;52.254;9.618;2024-02-16T03:23:28;3.03;;;1.90;;
15354;SDS011;7777;52.254;9.618;2024-02-16T03:25:53;3.47;;;1.90;;
15354;SDS011;7777;52.254;9.618;2024-02-16T03:28:19;3.50;;;1.77;;
15354;SDS011;7777;52.254;9.618;2024-02-16T03:30:46;3.53;;;1.47;;
15354;SDS011;7777;52.254;9.618;2024-02-16T03:33:12;13.57;;;2.07;;
15354;SDS011;7777;52.254;9.618;2024-02-16T03:35:42;3.57;;;1.57;;
15354;SDS011;7777;52.254;9.618;2024-02-16T03:38:08;5.03;;;1.80;;
15354;SDS011;7777;52.254;9.618;2024-02-16T03:40:33;3.37;;;1.50;;
15354;SDS011;7777;52.254;9.618;2024-02-16T03:42:59;4.37;;;2.10;;
15354;SDS011;7777;52.254;9.618;2024-02-16T03:45:25;5.97;;;1.67;;
15354;SDS011;7777;52.254;9.618;2024-02-16T03:47:54;5.80;;;1.60;;
15354;SDS011;7777;52.254;9.618;2024-02-16T03:50:20;6.00;;;2.20;;
15354;SDS011;7777;52.254;9.618;2024-02-16T03:52:47;3.10;;;1.53;;
15354;SDS011;7777;52.254;9.618;2024-02-16T03:55:13;7.53;;;2.10;;
15354;SDS011;7777;52.254;9.618;2024-02-16T03:57:39;3.33;;;1.80;;
15354;SDS011;7777;52.254;9.618;2024-02-16T04:00:06;2.70;;;1.60;;
15354;SDS011;7777;52.254;9.618;2024-02-16T04:02:33;2.10;;;1.33;;
15354;SDS011;7777;52.254;9.618;2024-02-16T04:04:59;4.63;;;1.40;;
15354;SDS011;7777;52.254;9.618;2024-02-16T04:07:25;5.47;;;1.87;;
15354;SDS011;7777;52.254;9.618;2024-02-16T04:09:51;4.47;;;1.80;;
15354;SDS011;7777;52.254;9.618;2024-02-16T04:12:18;4.37;;;1.40;;
15354;SDS011;7777;52.254;9.618;2024-02-16T04:14:44;2.80;;;1.43;;
15354;SDS011;7777;52.254;9.618;2024-02-16T04:17:09;4.07;;;1.80;;
15354;SDS011;7777;52.254;9.618;2024-02-16T04:19:38;4.20;;;1.70;;
15354;SDS011;7777;52.254;9.618;2024-02-16T04:22:04;5.73;;;2.00;;
15354;SDS011;7777;52.254;9.618;2024-02-16T04:24:31;3.87;;;1.80;;
15354;SDS011;7777;52.254;9.618;2024-02-16T04:26:57;5.90;;;2.27;;
15354;SDS011;7777;52.254;9.618;2024-02-16T04:29:23;2.93;;;1.43;;
15354;SDS011;7777;52.254;9.618;2024-02-16T04:31:49;4.20;;;1.60;;
15354;SDS011;7777;52.254;9.618;2024-02-16T04:34:14;4.37;;;1.70;;
15354;SDS011;7777;52.254;9.618;2024-02-16T04:36:41;3.13;;;1.40;;
15354;SDS011;7777;52.254;9.618;2024-02-16T04:39:07;3.80;;;1.77;;
15354;SDS011;7777;52.254;9.618;2024-02-16T04:41:35;5.57;;;1.50;;
15354;SDS011;7777;52.254;9.618;2024-02-16T04:44:01;4.83;;;1.97;;
15354;SDS011;7777;52.254;9.618;2024-02-16T04:46:27;3.27;;;1.60;;
15354;SDS011;7777;52.254;9.618;2024-02-16T04:48:53;3.90;;;1.60;;
15354;SDS011;7777;52.254;9.618;2024-02-16T04:51:19;4.53;;;1.87;;
15354;SDS011;7777;52.254;9.618;2024-02-16T04:53:45;3.93;;;2.20;;
15354;SDS011;7777;52.254;9.618;2024-02-16T04:56:11;5.87;;;1.90;;
15354;SDS011;7777;52.254;9.618;2024-02-16T04:58:41;2.73;;;1.83;;
15354;SDS011;7777;52.254;9.618;2024-02-16T05:01:07;4.50;;;1.87;;
15354;SDS011;7777;52.254;9.618;2024-02-16T05:03:33;4.13;;;1.60;;
15354;SDS011;7777;52.254;9.618;2024-02-16T05:06:02;4.10;;;1.93;;
15354;SDS011;7777;52.254;9.618;2024-02-16T05:08:28;3.90;;;1.60;;
15354;SDS011;7777;52.254;9.618;2024-02-16T05:10:54;3.43;;;1.53;;
15354;SDS011;7777;52.254;9.618;2024-02-16T05:13:20;4.67;;;1.70;;
15354;SDS011;7777;52.254;9.618;2024-02-16T05:15:45;6.17;;;1.73;;
15354;SDS011;7777;52.254;9.618;2024-02-16T05:18:13;3.87;;;1.60;;
15354;SDS011;7777;52.254;9.618;2024-02-16T05:20:40;3.50;;;1.57;;
15354;SDS011;7777;52.254;9.618;2024-02-16T05:23:05;3.37;;;1.60;;
15354;SDS011;7777;52.254;9.618;2024-02-16T05:25:31;4.63;;;1.90;;
15354;SDS011;7777;52.254;9.618;2024-02-16T05:27:57;3.53;;;1.57;;
15354;SDS011;7777;52.254;9.618;2024-02-16T05:30:24;2.83;;;1.60;;
15354;SDS011;7777;52.254;9.618;2024-02-16T05:32:49;2.80;;;1.50;;
15354;SDS011;7777;52.254;9.618;2024-02-16T05:35:18;5.60;;;2.13;;
15354;SDS011;7777;52.254;9.618;2024-02-16T05:37:44;4.50;;;2.17;;
15354;SDS011;7777;52.254;9.618;2024-02-16T05:40:16;3.53;;;1.60;;
15354;SDS011;7777;52.254;9.618;2024-02-16T05:42:57;4.97;;;1.80;;
15354;SDS011;7777;52.254;9.618;2024-02-16T05:45:23;5.90;;;1.67;;
15354;SDS011;7777;52.254;9.618;2024-02-16T05:47:50;2.07;;;1.40;;
15354;SDS011;7777;52.254;9.618;2024-02-16T05:50:16;4.13;;;1.80;;
15354;SDS011;7777;52.254;9.618;2024-02-16T05:52:43;5.57;;;1.40;;
15354;SDS011;7777;52.254;9.618;2024-02-16T05:55:09;2.13;;;1.40;;
15354;SDS011;7777;52.254;9.618;2024-02-16T05:57:38;4.13;;;1.90;;
15354;SDS011;7777;52.254;9.618;2024-02-16T06:00:04;4.40;;;2.03;;
15354;SDS011;7777;52.254;9.618;2024-02-16T06:02:33;4.07;;;1.73;;
15354;SDS011;7777;52.254;9.618;2024-02-16T06:04:59;2.83;;;1.77;;
15354;SDS011;7777;52.254;9.618;2024-02-16T06:07:29;6.67;;;1.97;;
15354;SDS011;7777;52.254;9.618;2024-02-16T06:09:55;5.63;;;1.80;;
15354;SDS011;7777;52.254;9.618;2024-02-16T06:12:21;4.97;;;2.23;;
15354;SDS011;7777;52.254;9.618;2024-02-16T06:14:48;5.33;;;1.50;;
15354;SDS011;7777;52.254;9.618;2024-02-16T06:17:14;4.63;;;1.60;;
15354;SDS011;7777;52.254;9.618;2024-02-16T06:19:40;3.77;;;1.50;;
15354;SDS011;7777;52.254;9.618;2024-02-16T06:22:07;2.30;;;1.47;;
15354;SDS011;7777;52.254;9.618;2024-02-16T06:24:35;4.00;;;1.97;;
15354;SDS011;7777;52.254;9.618;2024-02-16T06:27:02;5.70;;;2.23;;
15354;SDS011;7777;52.254;9.618;2024-02-16T06:29:29;4.87;;;2.87;;
15354;SDS011;7777;52.254;9.618;2024-02-16T06:31:55;7.03;;;2.73;;
15354;SDS011;7777;52.254;9.618;2024-02-16T06:34:21;5.87;;;2.63;;
15354;SDS011;7777;52.254;9.618;2024-02-16T06:36:47;3.80;;;1.97;;
15354;SDS011;7777;52.254;9.618;2024-02-16T06:39:15;9.83;;;3.20;;
15354;SDS011;7777;52.254;9.618;2024-02-16T06:41:43;8.67;;;3.03;;
15354;SDS011;7777;52.254;9.618;2024-02-16T06:44:10;6.93;;;2.60;;
15354;SDS011;7777;52.254;9.618;2024-02-16T06:46:37;4.83;;;2.53;;
15354;SDS011;7777;52.254;9.618;2024-02-16T06:49:03;3.37;;;2.00;;
15354;SDS011;7777;52.254;9.618;2024-02-16T06:51:29;2.77;;;1.60;;
15354;SDS011;7777;52.254;9.618;2024-02-16T06:53:55;5.30;;;1.83;;
15354;SDS011;7777;52.254;9.618;2024-02-16T06:56:20;3.43;;;1.63;;
15354;SDS011;7777;52.254;9.618;2024-02-16T06:58:46;7.73;;;2.33;;
15354;SDS011;7777;52.254;9.618;2024-02-16T07:01:13;3.37;;;2.00;;
15354;SDS011;7777;52.254;9.618;2024-02-16T07:03:40;5.93;;;2.03;;
15354;SDS011;7777;52.254;9.618;2024-02-16T07:06:06;4.80;;;1.60;;
15354;SDS011;7777;52.254;9.618;2024-02-16T07:08:38;5.30;;;2.10;;
15354;SDS011;7777;52.254;9.618;2024-02-16T07:11:07;11.37;;;2.53;;
15354;SDS011;7777;52.254;9.618;2024-02-16T07:13:33;5.53;;;2.40;;
15354;SDS011;7777;52.254;9.618;2024-02-16T07:15:59;7.07;;;1.90;;
15354;SDS011;7777;52.254;9.618;2024-02-16T07:18:26;4.53;;;2.07;;
15354;SDS011;7777;52.254;9.618;2024-02-16T07:20:52;4.20;;;1.83;;
15354;SDS011;7777;52.254;9.618;2024-02-16T07:23:19;6.40;;;2.30;;
15354;SDS011;7777;52.254;9.618;2024-02-16T07:25:45;5.50;;;2.00;;
15354;SDS011;7777;52.254;9.618;2024-02-16T07:28:11;3.43;;;1.93;;
15354;SDS011;7777;52.254;9.618;2024-02-16T07:30:36;3.20;;;1.80;;
15354;SDS011;7777;52.254;9.618;2024-02-16T07:33:05;4.00;;;2.03;;
15354;SDS011;7777;52.254;9.618;2024-02-16T07:35:32;5.20;;;2.03;;
15354;SDS011;7777;52.254;9.618;2024-02-16T07:38:01;5.93;;;2.33;;
15354;SDS011;7777;52.254;9.618;2024-02-16T07:40:29;7.60;;;2.63;;
15354;SDS011;7777;52.254;9.618;2024-02-16T07:42:56;3.60;;;2.10;;
15354;SDS011;7777;52.254;9.618;2024-02-16T07:45:22;4.37;;;2.37;;
15354;SDS011;7777;52.254;9.618;2024-02-16T07:47:48;3.63;;;2.20;;
15354;SDS011;7777;52.254;9.618;2024-02-16T07:50:17;5.20;;;2.00;;
15354;SDS011;7777;52.254;9.618;2024-02-16T07:52:46;4.50;;;2.00;;
15354;SDS011;7777;52.254;9.618;2024-02-16T07:55:13;6.63;;;2.43;;
15354;SDS011;7777;52.254;9.618;2024-02-16T07:57:39;5.40;;;1.90;;
15354;SDS011;7777;52.254;9.618;2024-02-16T08:00:05;4.17;;;1.83;;
15354;SDS011;7777;52.254;9.618;2024-02-16T08:02:31;9.27;;;1.73;;
15354;SDS011;7777;52.254;9.618;2024-02-16T08:04:58;4.63;;;2.00;;
15354;SDS011;7777;52.254;9.618;2024-02-16T08:07:24;6.57;;;1.80;;
15354;SDS011;7777;52.254;9.618;2024-02-16T08:09:49;3.67;;;1.90;;
15354;SDS011;7777;52.254;9.618;2024-02-16T08:12:15;3.60;;;1.70;;
15354;SDS011;7777;52.254;9.618;2024-02-16T08:14:44;2.97;;;1.53;;
15354;SDS011;7777;52.254;9.618;2024-02-16T08:17:11;3.33;;;1.80;;
15354;SDS011;7777;52.254;9.618;2024-02-16T08:19:37;5.97;;;1.83;;
15354;SDS011;7777;52.254;9.618;2024-02-16T08:22:04;8.13;;;1.97;;
15354;SDS011;7777;52.254;9.618;2024-02-16T08:24:32;2.97;;;1.80;;
15354;SDS011;7777;52.254;9.618;2024-02-16T08:27:01;4.73;;;1.87;;
15354;SDS011;7777;52.254;9.618;2024-02-16T08:29:28;3.60;;;1.80;;
15354;SDS011;7777;52.254;9.618;2024-02-16T08:31:54;14.87;;;2.20;;
15354;SDS011;7777;52.254;9.618;2024-02-16T08:34:20;3.33;;;1.70;;
15354;SDS011;7777;52.254;9.618;2024-02-16T08:36:46;2.67;;;1.50;;
15354;SDS011;7777;52.254;9.618;2024-02-16T08:39:13;4.03;;;1.80;;
15354;SDS011;7777;52.254;9.618;2024-02-16T08:41:39;5.10;;;1.60;;
15354;SDS011;7777;52.254;9.618;2024-02-16T08:44:08;5.60;;;1.60;;
15354;SDS011;7777;52.254;9.618;2024-02-16T08:46:35;4.53;;;1.93;;
15354;SDS011;7777;52.254;9.618;2024-02-16T08:49:02;6.50;;;1.47;;
15354;SDS011;7777;52.254;9.618;2024-02-16T08:51:28;3.10;;;1.53;;
15354;SDS011;7777;52.254;9.618;2024-02-16T08:53:54;3.57;;;1.70;;
15354;SDS011;7777;52.254;9.618;2024-02-16T08:56:20;3.67;;;1.60;;
15354;SDS011;7777;52.254;9.618;2024-02-16T08:58:46;4.90;;;2.00;;
15354;SDS011;7777;52.254;9.618;2024-02-16T09:01:12;8.40;;;1.80;;
15354;SDS011;7777;52.254;9.618;2024-02-16T09:03:37;4.77;;;2.20;;
15354;SDS011;7777;52.254;9.618;2024-02-16T09:06:05;2.70;;;1.70;;
15354;SDS011;7777;52.254;9.618;2024-02-16T09:08:31;6.43;;;1.83;;
15354;SDS011;7777;52.254;9.618;2024-02-16T09:11:00;5.00;;;2.30;;
15354;SDS011;7777;52.254;9.618;2024-02-16T09:13:36;5.30;;;2.07;;
15354;SDS011;7777;52.254;9.618;2024-02-16T09:16:06;8.27;;;2.17;;
15354;SDS011;7777;52.254;9.618;2024-02-16T09:18:32;5.77;;;1.87;;
15354;SDS011;7777;52.254;9.618;2024-02-16T09:20:59;5.80;;;2.17;;
15354;SDS011;7777;52.254;9.618;2024-02-16T09:23:26;5.00;;;2.00;;
15354;SDS011;7777;52.254;9.618;2024-02-16T09:25:52;4.73;;;2.27;;
15354;SDS011;7777;52.254;9.618;2024-02-16T09:28:19;3.90;;;2.13;;
15354;SDS011;7777;52.254;9.618;2024-02-16T09:30:45;7.80;;;1.97;;
15354;SDS011;7777;52.254;9.618;2024-02-16T09:33:12;6.17;;;1.67;;
15354;SDS011;7777;52.254;9.618;2024-02-16T09:35:38;4.03;;;1.90;;
15354;SDS011;7777;52.254;9.618;2024-02-16T09:38:05;4.90;;;2.07;;
15354;SDS011;7777;52.254;9.618;2024-02-16T09:40:31;5.87;;;2.00;;
15354;SDS011;7777;52.254;9.618;2024-02-16T09:42:58;3.83;;;1.77;;
15354;SDS011;7777;52.254;9.618;2024-02-16T09:45:24;5.40;;;1.70;;
15354;SDS011;7777;52.254;9.618;2024-02-16T09:47:52;2.83;;;1.80;;
15354;SDS011;7777;52.254;9.618;2024-02-16T09:50:20;5.80;;;2.03;;
15354;SDS011;7777;52.254;9.618;2024-02-16T09:52:48;3.93;;;2.13;;
15354;SDS011;7777;52.254;9.618;2024-02-16T09:55:15;3.77;;;1.80;;
15354;SDS011;7777;52.254;9.618;2024-02-16T09:57:42;2.83;;;1.60;;
15354;SDS011;7777;52.254;9.618;2024-02-16T10:00:09;3.73;;;1.93;;
15354;SDS011;7777;52.254;9.618;2024-02-16T10:02:46;4.33;;;2.00;;
15354;SDS011;7777;52.254;9.618;2024-02-16T10:05:13;4.47;;;1.63;;
15354;SDS011;7777;52.254;9.618;2024-02-16T10:07:44;3.73;;;1.87;;
15354;SDS011;7777;52.254;9.618;2024-02-16T10:13:06;7.27;;;2.03;;
15354;SDS011;7777;52.254;9.618;2024-02-16T10:15:33;2.73;;;1.70;;
15354;SDS011;7777;52.254;9.618;2024-02-16T10:18:00;6.00;;;1.80;;
15354;SDS011;7777;52.254;9.618;2024-02-16T10:20:31;3.77;;;1.97;;
15354;SDS011;7777;52.254;9.618;2024-02-16T10:23:05;4.80;;;1.97;;
15354;SDS011;7777;52.254;9.618;2024-02-16T10:25:32;4.93;;;2.30;;
15354;SDS011;7777;52.254;9.618;2024-02-16T10:28:09;2.37;;;1.70;;
15354;SDS011;7777;52.254;9.618;2024-02-16T10:30:40;5.10;;;1.97;;
15354;SDS011;7777;52.254;9.618;2024-02-16T10:33:09;3.33;;;1.60;;
15354;SDS011;7777;52.254;9.618;2024-02-16T10:35:39;8.70;;;2.17;;
15354;SDS011;7777;52.254;9.618;2024-02-16T10:38:07;6.43;;;1.73;;
15354;SDS011;7777;52.254;9.618;2024-02-16T10:40:41;4.90;;;2.00;;
15354;SDS011;7777;52.254;9.618;2024-02-16T10:43:08;3.80;;;2.17;;
15354;SDS011;7777;52.254;9.618;2024-02-16T10:45:35;4.67;;;1.90;;
15354;SDS011;7777;52.254;9.618;2024-02-16T10:48:03;4.10;;;2.13;;
15354;SDS011;7777;52.254;9.618;2024-02-16T10:50:32;3.00;;;1.60;;
15354;SDS011;7777;52.254;9.618;2024-02-16T10:53:00;4.10;;;2.30;;
15354;SDS011;7777;52.254;9.618;2024-02-16T10:55:37;3.20;;;1.73;;
15354;SDS011;7777;52.254;9.618;2024-02-16T10:58:03;6.13;;;2.10;;
15354;SDS011;7777;52.254;9.618;2024-02-16T11:00:28;7.27;;;2.43;;
15354;SDS011;7777;52.254;9.618;2024-02-16T11:03:01;5.07;;;2.20;;
15354;SDS011;7777;52.254;9.618;2024-02-16T11:05:32;3.80;;;1.83;;
15354;SDS011;7777;52.254;9.618;2024-02-16T11:08:11;5.00;;;2.13;;
15354;SDS011;7777;52.254;9.618;2024-02-16T11:10:38;6.20;;;1.90;;
15354;SDS011;7777;52.254;9.618;2024-02-16T11:13:05;5.27;;;1.93;;
15354;SDS011;7777;52.254;9.618;2024-02-16T11:15:33;5.13;;;2.13;;
15354;SDS011;7777;52.254;9.618;2024-02-16T11:18:01;6.80;;;2.10;;
15354;SDS011;7777;52.254;9.618;2024-02-16T11:20:27;4.03;;;1.70;;
15354;SDS011;7777;52.254;9.618;2024-02-16T11:23:04;3.90;;;1.97;;
15354;SDS011;7777;52.254;9.618;2024-02-16T11:25:36;8.20;;;2.20;;
15354;SDS011;7777;52.254;9.618;2024-02-16T11:28:04;4.17;;;2.27;;
15354;SDS011;7777;52.254;9.618;2024-02-16T11:30:33;7.20;;;1.80;;
15354;SDS011;7777;52.254;9.618;2024-02-16T11:33:02;5.23;;;2.07;;
15354;SDS011;7777;52.254;9.618;2024-02-16T11:35:28;4.70;;;1.80;;
15354;SDS011;7777;52.254;9.618;2024-02-16T11:37:55;5.07;;;1.93;;
15354;SDS011;7777;52.254;9.618;2024-02-16T11:40:21;6.47;;;2.00;;
15354;SDS011;7777;52.254;9.618;2024-02-16T11:42:47;6.07;;;2.30;;
15354;SDS011;7777;52.254;9.618;2024-02-16T11:45:13;2.57;;;1.40;;
15354;SDS011;7777;52.254;9.618;2024-02-16T11:47:38;5.03;;;1.97;;
15354;SDS011;7777;52.254;9.618;2024-02-16T11:50:05;6.30;;;2.40;;
15354;SDS011;7777;52.254;9.618;2024-02-16T11:52:38;4.33;;;2.07;;
15354;SDS011;7777;52.254;9.618;2024-02-16T11:55:04;8.30;;;1.73;;
15354;SDS011;7777;52.254;9.618;2024-02-16T11:57:35;3.67;;;2.00;;
15354;SDS011;7777;52.254;9.618;2024-02-16T12:00:03;3.47;;;1.80;;
15354;SDS011;7777;52.254;9.618;2024-02-16T12:02:36;3.60;;;1.77;;
15354;SDS011;7777;52.254;9.618;2024-02-16T12:05:03;4.20;;;2.27;;
15354;SDS011;7777;52.254;9.618;2024-02-16T12:07:30;5.60;;;1.90;;
15354;SDS011;7777;52.254;9.618;2024-02-16T12:09:58;5.13;;;2.00;;
15354;SDS011;7777;52.254;9.618;2024-02-16T12:12:25;3.80;;;2.00;;
15354;SDS011;7777;52.254;9.618;2024-02-16T12:14:52;5.37;;;2.20;;
15354;SDS011;7777;52.254;9.618;2024-02-16T12:17:19;4.10;;;2.03;;
15354;SDS011;7777;52.254;9.618;2024-02-16T12:19:46;3.10;;;1.80;;
15354;SDS011;7777;52.254;9.618;2024-02-16T12:22:19;4.07;;;2.20;;
15354;SDS011;7777;52.254;9.618;2024-02-16T12:24:46;4.73;;;2.07;;
15354;SDS011;7777;52.254;9.618;2024-02-16T12:27:16;6.40;;;2.43;;
15354;SDS011;7777;52.254;9.618;2024-02-16T12:29:41;7.80;;;2.00;;
15354;SDS011;7777;52.254;9.618;2024-02-16T12:32:09;5.40;;;2.23;;
15354;SDS011;7777;52.254;9.618;2024-02-16T12:34:35;4.13;;;2.00;;
15354;SDS011;7777;52.254;9.618;2024-02-16T12:37:04;4.37;;;1.93;;
15354;SDS011;7777;52.254;9.618;2024-02-16T12:39:32;3.93;;;2.20;;
15354;SDS011;7777;52.254;9.618;2024-02-16T12:41:59;4.57;;;2.33;;
15354;SDS011;7777;52.254;9.618;2024-02-16T12:44:26;8.33;;;2.77;;
15354;SDS011;7777;52.254;9.618;2024-02-16T12:46:52;4.33;;;1.93;;
15354;SDS011;7777;52.254;9.618;2024-02-16T12:49:19;8.43;;;2.17;;
15354;SDS011;7777;52.254;9.618;2024-02-16T12:51:47;5.13;;;2.20;;
15354;SDS011;7777;52.254;9.618;2024-02-16T12:54:16;9.07;;;2.60;;
15354;SDS011;7777;52.254;9.618;2024-02-16T12:56:44;5.67;;;2.30;;
15354;SDS011;7777;52.254;9.618;2024-02-16T12:59:14;3.73;;;2.33;;
15354;SDS011;7777;52.254;9.618;2024-02-16T13:01:41;7.03;;;2.60;;
15354;SDS011;7777;52.254;9.618;2024-02-16T13:04:08;5.77;;;2.17;;
15354;SDS011;7777;52.254;9.618;2024-02-16T13:06:34;3.80;;;2.20;;
15354;SDS011;7777;52.254;9.618;2024-02-16T13:08:59;3.97;;;2.20;;
15354;SDS011;7777;52.254;9.618;2024-02-16T13:11:26;4.80;;;2.67;;
15354;SDS011;7777;52.254;9.618;2024-02-16T13:13:54;7.60;;;2.70;;
15354;SDS011;7777;52.254;9.618;2024-02-16T13:16:19;6.90;;;2.53;;
15354;SDS011;7777;52.254;9.618;2024-02-16T13:18:46;5.57;;;2.67;;
15354;SDS011;7777;52.254;9.618;2024-02-16T13:21:11;7.17;;;2.77;;
15354;SDS011;7777;52.254;9.618;2024-02-16T13:23:38;9.87;;;2.53;;
15354;SDS011;7777;52.254;9.618;2024-02-16T13:26:04;8.60;;;3.10;;
15354;SDS011;7777;52.254;9.618;2024-02-16T13:28:31;7.73;;;2.93;;
15354;SDS011;7777;52.254;9.618;2024-02-16T13:30:56;9.70;;;2.70;;
15354;SDS011;7777;52.254;9.618;2024-02-16T13:33:23;29.77;;;3.10;;
15354;SDS011;7777;52.254;9.618;2024-02-16T13:35:49;5.67;;;2.57;;
15354;SDS011;7777;52.254;9.618;2024-02-16T13:38:16;6.60;;;2.57;;
15354;SDS011;7777;52.254;9.618;2024-02-16T13:40:42;5.60;;;2.87;;
15354;SDS011;7777;52.254;9.618;2024-02-16T13:43:08;8.97;;;2.90;;
15354;SDS011;7777;52.254;9.618;2024-02-16T13:45:53;9.27;;;3.43;;
15354;SDS011;7777;52.254;9.618;2024-02-16T13:48:21;11.10;;;3.50;;
15354;SDS011;7777;52.254;9.618;2024-02-16T13:50:47;6.93;;;2.87;;
15354;SDS011;7777;52.254;9.618;2024-02-16T13:53:13;7.90;;;2.90;;
15354;SDS011;7777;52.254;9.618;2024-02-16T13:55:41;10.17;;;3.57;;
15354;SDS011;7777;52.254;9.618;2024-02-16T13:58:08;6.73;;;3.17;;
15354;SDS011;7777;52.254;9.618;2024-02-16T14:00:36;6.93;;;2.50;;
15354;SDS011;7777;52.254;9.618;2024-02-16T14:03:02;10.23;;;3.10;;
15354;SDS011;7777;52.254;9.618;2024-02-16T14:05:30;12.53;;;3.27;;
15354;SDS011;7777;52.254;9.618;2024-02-16T14:07:57;4.70;;;2.97;;
15354;SDS011;7777;52.254;9.618;2024-02-16T14:10:22;9.57;;;3.83;;
15354;SDS011;7777;52.254;9.618;2024-02-16T14:12:48;9.37;;;3.40;;
15354;SDS011;7777;52.254;9.618;2024-02-16T14:15:14;11.90;;;3.33;;
15354;SDS011;7777;52.254;9.618;2024-02-16T14:17:43;9.80;;;3.90;;
15354;SDS011;7777;52.254;9.618;2024-02-16T14:20:10;8.50;;;3.10;;
15354;SDS011;7777;52.254;9.618;2024-02-16T14:22:36;5.73;;;2.90;;
15354;SDS011;7777;52.254;9.618;2024-02-16T14:25:03;10.00;;;3.57;;
15354;SDS011;7777;52.254;9.618;2024-02-16T14:27:29;8.50;;;3.13;;
15354;SDS011;7777;52.254;9.618;2024-02-16T14:29:55;11.90;;;3.23;;
15354;SDS011;7777;52.254;9.618;2024-02-16T14:32:22;14.47;;;3.03;;
15354;SDS011;7777;52.254;9.618;2024-02-16T14:34:48;7.37;;;3.10;;
15354;SDS011;7777;52.254;9.618;2024-02-16T14:37:13;8.03;;;3.63;;
15354;SDS011;7777;52.254;9.618;2024-02-16T14:39:39;11.00;;;3.50;;
15354;SDS011;7777;52.254;9.618;2024-02-16T14:42:05;9.23;;;4.00;;
15354;SDS011;7777;52.254;9.618;2024-02-16T14:44:33;7.50;;;3.77;;
15354;SDS011;7777;52.254;9.618;2024-02-16T14:46:59;4.43;;;3.50;;
15354;SDS011;7777;52.254;9.618;2024-02-16T14:49:25;11.23;;;4.47;;
15354;SDS011;7777;52.254;9.618;2024-02-16T14:51:51;7.67;;;3.70;;
15354;SDS011;7777;52.254;9.618;2024-02-16T14:54:18;9.17;;;3.53;;
15354;SDS011;7777;52.254;9.618;2024-02-16T14:56:44;10.90;;;3.83;;
15354;SDS011;7777;52.254;9.618;2024-02-16T14:59:10;11.73;;;3.87;;
15354;SDS011;7777;52.254;9.618;2024-02-16T15:01:36;9.23;;;4.13;;